sensor_id;sensor_type;location;lat;lon;timestamp;pressure;altitude;pressure_sealevel;temperature;humidity
70248;BME280;57641;51.416;5.506;2022-12-08T00:01:16;101257.09;;;9.16;62.32
70248;BME280;57641;51.416;5.506;2022-12-08T00:03:43;101251.63;;;9.08;61.96
70248;BME280;57641;51.416;5.506;2022-12-08T00:09:02;101248.66;;;9.01;62.50
70248;BME280;57641;51.416;5.506;2022-12-08T00:12:03;101249.31;;;8.94;62.63
70248;BME280;57641;51.416;5.506;2022-12-08T00:14:31;101239.66;;;8.93;63.09
70248;BME280;57641;51.416;5.506;2022-12-08T00:16:58;101228.44;;;8.89;63.27
70248;BME280;57641;51.416;5.506;2022-12-08T00:19:25;101228.03;;;8.94;62.86
70248;BME280;57641;51.416;5.506;2022-12-08T00:21:52;101226.91;;;8.86;62.55
70248;BME280;57641;51.416;5.506;2022-12-08T00:24:19;101218.63;;;8.89;63.35
70248;BME280;57641;51.416;5.506;2022-12-08T00:26:46;101213.00;;;8.83;63.72
70248;BME280;57641;51.416;5.506;2022-12-08T00:29:16;101208.16;;;8.88;62.87
70248;BME280;57641;51.416;5.506;2022-12-08T00:31:42;101214.03;;;8.92;63.46
70248;BME280;57641;51.416;5.506;2022-12-08T00:34:08;101214.03;;;8.92;63.54
70248;BME280;57641;51.416;5.506;2022-12-08T00:36:34;101210.63;;;8.80;63.72
70248;BME280;57641;51.416;5.506;2022-12-08T00:38:59;101207.56;;;8.84;62.97
70248;BME280;57641;51.416;5.506;2022-12-08T00:41:26;101210.41;;;8.93;63.86
70248;BME280;57641;51.416;5.506;2022-12-08T00:44:13;101208.06;;;8.69;63.58
70248;BME280;57641;51.416;5.506;2022-12-08T00:46:40;101211.00;;;8.66;63.55
70248;BME280;57641;51.416;5.506;2022-12-08T00:49:05;101212.84;;;8.75;64.10
70248;BME280;57641;51.416;5.506;2022-12-08T00:51:32;101207.69;;;8.83;64.11
70248;BME280;57641;51.416;5.506;2022-12-08T00:53:57;101206.03;;;8.82;63.28
70248;BME280;57641;51.416;5.506;2022-12-08T00:56:24;101203.94;;;8.85;63.50
70248;BME280;57641;51.416;5.506;2022-12-08T00:58:50;101208.16;;;8.88;62.90
70248;BME280;57641;51.416;5.506;2022-12-08T01:01:16;101206.31;;;8.88;63.39
70248;BME280;57641;51.416;5.506;2022-12-08T01:03:42;101197.81;;;8.95;63.20
70248;BME280;57641;51.416;5.506;2022-12-08T01:06:09;101193.31;;;8.85;63.13
70248;BME280;57641;51.416;5.506;2022-12-08T01:08:35;101194.41;;;8.83;63.81
70248;BME280;57641;51.416;5.506;2022-12-08T01:11:03;101196.50;;;8.79;62.96
70248;BME280;57641;51.416;5.506;2022-12-08T01:13:29;101192.34;;;8.86;63.41
70248;BME280;57641;51.416;5.506;2022-12-08T01:15:55;101189.31;;;8.70;63.30
70248;BME280;57641;51.416;5.506;2022-12-08T01:18:20;101183.47;;;8.76;62.87
70248;BME280;57641;51.416;5.506;2022-12-08T01:20:46;101179.03;;;8.86;63.76
70248;BME280;57641;51.416;5.506;2022-12-08T01:23:12;101174.59;;;8.97;63.58
70248;BME280;57641;51.416;5.506;2022-12-08T01:25:41;101173.81;;;8.75;62.49
70248;BME280;57641;51.416;5.506;2022-12-08T01:28:07;101170.53;;;8.93;63.75
70248;BME280;57641;51.416;5.506;2022-12-08T01:30:33;101171.66;;;9.00;62.86
70248;BME280;57641;51.416;5.506;2022-12-08T01:32:58;101171.22;;;8.95;63.00
70248;BME280;57641;51.416;5.506;2022-12-08T01:35:24;101167.91;;;9.02;62.68
70248;BME280;57641;51.416;5.506;2022-12-08T01:37:49;101171.41;;;9.03;62.20
70248;BME280;57641;51.416;5.506;2022-12-08T01:40:16;101175.69;;;8.94;62.82
70248;BME280;57641;51.416;5.506;2022-12-08T01:42:41;101173.09;;;9.04;63.01
70248;BME280;57641;51.416;5.506;2022-12-08T01:45:27;101176.31;;;9.07;62.87
70248;BME280;57641;51.416;5.506;2022-12-08T01:47:57;101172.94;;;9.05;62.26
70248;BME280;57641;51.416;5.506;2022-12-08T01:50:26;101169.41;;;9.05;62.46
70248;BME280;57641;51.416;5.506;2022-12-08T01:52:59;101164.50;;;9.00;62.81
70248;BME280;57641;51.416;5.506;2022-12-08T01:55:35;101166.34;;;9.00;63.12
70248;BME280;57641;51.416;5.506;2022-12-08T01:58:29;101169.72;;;9.02;62.79
70248;BME280;57641;51.416;5.506;2022-12-08T02:00:56;101175.16;;;9.00;62.86
70248;BME280;57641;51.416;5.506;2022-12-08T02:03:30;101170.56;;;9.02;62.65
70248;BME280;57641;51.416;5.506;2022-12-08T02:05:58;101166.22;;;9.11;62.15
70248;BME280;57641;51.416;5.506;2022-12-08T02:08:24;101152.25;;;9.09;62.81
70248;BME280;57641;51.416;5.506;2022-12-08T02:10:52;101153.75;;;9.02;62.76
70248;BME280;57641;51.416;5.506;2022-12-08T02:13:19;101150.97;;;9.03;62.79
70248;BME280;57641;51.416;5.506;2022-12-08T02:24:12;101138.13;;;8.78;63.59
70248;BME280;57641;51.416;5.506;2022-12-08T02:26:50;101133.53;;;8.80;63.55
70248;BME280;57641;51.416;5.506;2022-12-08T02:43:31;101114.72;;;8.62;64.44
70248;BME280;57641;51.416;5.506;2022-12-08T02:46:02;101112.78;;;8.74;64.37
70248;BME280;57641;51.416;5.506;2022-12-08T02:48:32;101105.41;;;8.77;65.00
70248;BME280;57641;51.416;5.506;2022-12-08T02:50:58;101113.81;;;8.82;64.45
70248;BME280;57641;51.416;5.506;2022-12-08T02:53:28;101105.16;;;8.90;63.56
70248;BME280;57641;51.416;5.506;2022-12-08T03:02:06;101095.31;;;8.71;63.97
70248;BME280;57641;51.416;5.506;2022-12-08T03:04:45;101087.50;;;8.79;64.92
70248;BME280;57641;51.416;5.506;2022-12-08T03:07:22;101087.78;;;8.76;63.92
70248;BME280;57641;51.416;5.506;2022-12-08T03:10:12;101083.56;;;8.74;64.68
70248;BME280;57641;51.416;5.506;2022-12-08T03:15:44;101083.94;;;8.60;64.98
70248;BME280;57641;51.416;5.506;2022-12-08T03:18:23;101077.25;;;8.65;64.64
70248;BME280;57641;51.416;5.506;2022-12-08T03:20:53;101070.81;;;8.68;64.47
70248;BME280;57641;51.416;5.506;2022-12-08T03:23:21;101078.06;;;8.56;64.62
70248;BME280;57641;51.416;5.506;2022-12-08T03:26:03;101067.59;;;8.74;65.30
70248;BME280;57641;51.416;5.506;2022-12-08T03:28:32;101073.75;;;8.74;64.73
70248;BME280;57641;51.416;5.506;2022-12-08T03:31:01;101058.97;;;8.81;63.93
70248;BME280;57641;51.416;5.506;2022-12-08T03:33:31;101065.13;;;8.92;63.79
70248;BME280;57641;51.416;5.506;2022-12-08T03:35:58;101055.59;;;8.89;64.34
70248;BME280;57641;51.416;5.506;2022-12-08T03:38:43;101056.63;;;8.98;63.33
70248;BME280;57641;51.416;5.506;2022-12-08T03:41:10;101057.00;;;8.83;64.01
70248;BME280;57641;51.416;5.506;2022-12-08T03:43:52;101053.91;;;8.78;64.36
70248;BME280;57641;51.416;5.506;2022-12-08T03:46:20;101054.00;;;8.67;65.04
70248;BME280;57641;51.416;5.506;2022-12-08T03:48:46;101048.56;;;8.69;65.05
70248;BME280;57641;51.416;5.506;2022-12-08T03:51:12;101049.28;;;8.71;65.06
70248;BME280;57641;51.416;5.506;2022-12-08T03:53:38;101043.44;;;8.77;65.82
70248;BME280;57641;51.416;5.506;2022-12-08T03:56:31;101044.53;;;8.74;65.06
70248;BME280;57641;51.416;5.506;2022-12-08T03:58:58;101043.00;;;8.72;65.43
70248;BME280;57641;51.416;5.506;2022-12-08T04:01:23;101042.28;;;8.79;64.91
70248;BME280;57641;51.416;5.506;2022-12-08T04:03:49;101041.06;;;8.93;65.26
70248;BME280;57641;51.416;5.506;2022-12-08T04:06:15;101036.44;;;8.95;64.51
70248;BME280;57641;51.416;5.506;2022-12-08T04:08:42;101031.53;;;8.90;64.66
70248;BME280;57641;51.416;5.506;2022-12-08T04:11:09;101035.75;;;8.93;64.87
70248;BME280;57641;51.416;5.506;2022-12-08T04:13:36;101037.56;;;8.93;64.95
70248;BME280;57641;51.416;5.506;2022-12-08T04:16:03;101032.25;;;8.93;64.91
70248;BME280;57641;51.416;5.506;2022-12-08T04:18:30;101022.59;;;8.92;64.73
70248;BME280;57641;51.416;5.506;2022-12-08T04:20:55;101028.16;;;8.79;64.75
70248;BME280;57641;51.416;5.506;2022-12-08T04:23:21;101022.47;;;8.93;64.92
70248;BME280;57641;51.416;5.506;2022-12-08T04:25:46;101028.88;;;9.00;64.35
70248;BME280;57641;51.416;5.506;2022-12-08T04:28:12;101032.94;;;8.95;63.59
70248;BME280;57641;51.416;5.506;2022-12-08T04:30:38;101022.88;;;8.98;64.46
70248;BME280;57641;51.416;5.506;2022-12-08T04:33:04;101017.28;;;8.92;64.69
70248;BME280;57641;51.416;5.506;2022-12-08T04:35:30;101023.84;;;8.87;64.78
70248;BME280;57641;51.416;5.506;2022-12-08T04:37:55;101022.69;;;8.71;64.27
70248;BME280;57641;51.416;5.506;2022-12-08T04:40:22;101019.63;;;8.75;64.50
70248;BME280;57641;51.416;5.506;2022-12-08T04:42:49;101011.66;;;8.75;64.82
70248;BME280;57641;51.416;5.506;2022-12-08T04:45:14;101008.16;;;8.84;64.93
70248;BME280;57641;51.416;5.506;2022-12-08T04:47:40;101011.97;;;8.92;64.29
70248;BME280;57641;51.416;5.506;2022-12-08T04:50:06;101015.88;;;8.97;64.63
70248;BME280;57641;51.416;5.506;2022-12-08T04:52:33;101009.47;;;9.09;63.91
70248;BME280;57641;51.416;5.506;2022-12-08T04:54:59;101005.66;;;9.02;63.96
70248;BME280;57641;51.416;5.506;2022-12-08T04:57:24;100992.78;;;8.98;63.81
70248;BME280;57641;51.416;5.506;2022-12-08T04:59:50;100992.25;;;9.04;64.25
70248;BME280;57641;51.416;5.506;2022-12-08T05:02:16;101000.91;;;8.96;64.06
70248;BME280;57641;51.416;5.506;2022-12-08T05:04:42;101008.31;;;9.02;63.66
70248;BME280;57641;51.416;5.506;2022-12-08T05:07:07;101012.38;;;8.87;63.82
70248;BME280;57641;51.416;5.506;2022-12-08T05:09:33;101012.50;;;8.85;63.88
70248;BME280;57641;51.416;5.506;2022-12-08T05:11:58;101004.97;;;8.90;63.73
70248;BME280;57641;51.416;5.506;2022-12-08T05:14:23;101008.31;;;8.93;63.80
70248;BME280;57641;51.416;5.506;2022-12-08T05:16:49;101006.22;;;8.86;63.63
70248;BME280;57641;51.416;5.506;2022-12-08T05:19:17;101012.38;;;8.77;63.92
70248;BME280;57641;51.416;5.506;2022-12-08T05:21:44;101003.56;;;8.77;64.56
70248;BME280;57641;51.416;5.506;2022-12-08T05:24:10;101009.41;;;8.80;64.61
70248;BME280;57641;51.416;5.506;2022-12-08T05:26:36;100998.78;;;8.90;64.40
70248;BME280;57641;51.416;5.506;2022-12-08T05:29:02;101003.81;;;8.83;64.23
70248;BME280;57641;51.416;5.506;2022-12-08T05:31:28;101012.06;;;8.61;64.21
70248;BME280;57641;51.416;5.506;2022-12-08T05:33:54;101001.44;;;8.71;64.87
70248;BME280;57641;51.416;5.506;2022-12-08T05:36:20;100990.94;;;8.69;64.59
70248;BME280;57641;51.416;5.506;2022-12-08T05:38:46;100992.63;;;8.70;64.16
70248;BME280;57641;51.416;5.506;2022-12-08T05:41:18;100984.09;;;8.76;64.82
70248;BME280;57641;51.416;5.506;2022-12-08T05:43:44;100986.75;;;8.86;64.73
70248;BME280;57641;51.416;5.506;2022-12-08T05:46:11;100976.66;;;8.61;64.02
70248;BME280;57641;51.416;5.506;2022-12-08T05:48:37;100991.22;;;8.76;64.31
70248;BME280;57641;51.416;5.506;2022-12-08T05:51:03;100985.31;;;8.53;64.45
70248;BME280;57641;51.416;5.506;2022-12-08T05:53:29;100988.97;;;8.62;64.91
70248;BME280;57641;51.416;5.506;2022-12-08T05:55:55;100984.53;;;8.72;63.96
70248;BME280;57641;51.416;5.506;2022-12-08T05:58:21;100987.00;;;8.73;63.84
70248;BME280;57641;51.416;5.506;2022-12-08T06:00:48;100980.19;;;8.80;64.12
70248;BME280;57641;51.416;5.506;2022-12-08T06:03:16;100983.56;;;8.82;64.03
70248;BME280;57641;51.416;5.506;2022-12-08T06:05:43;100983.69;;;8.90;63.99
70248;BME280;57641;51.416;5.506;2022-12-08T06:08:10;100981.88;;;8.81;63.09
70248;BME280;57641;51.416;5.506;2022-12-08T06:10:40;100981.44;;;8.76;62.88
70248;BME280;57641;51.416;5.506;2022-12-08T06:13:07;100973.00;;;8.52;63.47
70248;BME280;57641;51.416;5.506;2022-12-08T06:15:37;100978.59;;;8.59;63.63
70248;BME280;57641;51.416;5.506;2022-12-08T06:18:04;100969.66;;;8.69;63.11
70248;BME280;57641;51.416;5.506;2022-12-08T06:20:29;100967.19;;;8.77;63.19
70248;BME280;57641;51.416;5.506;2022-12-08T06:22:56;100969.25;;;8.83;62.93
70248;BME280;57641;51.416;5.506;2022-12-08T06:25:22;100973.31;;;8.78;63.64
70248;BME280;57641;51.416;5.506;2022-12-08T06:27:48;100976.38;;;8.83;63.18
70248;BME280;57641;51.416;5.506;2022-12-08T06:30:14;100971.38;;;8.80;63.27
70248;BME280;57641;51.416;5.506;2022-12-08T06:32:40;100973.91;;;8.81;63.53
70248;BME280;57641;51.416;5.506;2022-12-08T06:35:06;100970.53;;;8.79;62.83
70248;BME280;57641;51.416;5.506;2022-12-08T06:37:35;100962.00;;;8.85;63.34
70248;BME280;57641;51.416;5.506;2022-12-08T06:40:02;100956.13;;;8.92;63.58
70248;BME280;57641;51.416;5.506;2022-12-08T06:42:34;100959.63;;;8.92;62.83
70248;BME280;57641;51.416;5.506;2022-12-08T06:45:10;100956.25;;;8.90;62.74
70248;BME280;57641;51.416;5.506;2022-12-08T06:47:36;100958.19;;;8.78;63.00
70248;BME280;57641;51.416;5.506;2022-12-08T06:50:01;100960.31;;;8.84;62.88
70248;BME280;57641;51.416;5.506;2022-12-08T06:52:27;100951.22;;;8.87;62.84
70248;BME280;57641;51.416;5.506;2022-12-08T06:54:52;100951.78;;;8.90;62.38
70248;BME280;57641;51.416;5.506;2022-12-08T06:57:17;100956.69;;;8.76;62.29
70248;BME280;57641;51.416;5.506;2022-12-08T06:59:43;100959.03;;;8.60;63.14
70248;BME280;57641;51.416;5.506;2022-12-08T07:02:10;100959.34;;;8.66;63.56
70248;BME280;57641;51.416;5.506;2022-12-08T07:04:35;100956.13;;;8.72;63.27
70248;BME280;57641;51.416;5.506;2022-12-08T07:07:01;100963.09;;;8.83;63.44
70248;BME280;57641;51.416;5.506;2022-12-08T07:09:27;100963.38;;;8.80;62.20
70248;BME280;57641;51.416;5.506;2022-12-08T07:11:54;100973.47;;;8.86;62.62
70248;BME280;57641;51.416;5.506;2022-12-08T07:14:19;100969.53;;;8.90;63.09
70248;BME280;57641;51.416;5.506;2022-12-08T07:16:49;100968.88;;;8.98;62.78
70248;BME280;57641;51.416;5.506;2022-12-08T07:19:15;100976.84;;;8.98;62.80
70248;BME280;57641;51.416;5.506;2022-12-08T07:21:41;100971.78;;;8.95;62.62
70248;BME280;57641;51.416;5.506;2022-12-08T07:24:06;100973.34;;;8.97;63.05
70248;BME280;57641;51.416;5.506;2022-12-08T07:26:36;100982.72;;;8.72;62.63
70248;BME280;57641;51.416;5.506;2022-12-08T07:29:02;100970.38;;;8.81;63.45
70248;BME280;57641;51.416;5.506;2022-12-08T07:31:31;100972.34;;;8.79;63.22
70248;BME280;57641;51.416;5.506;2022-12-08T07:33:57;100974.56;;;8.83;62.63
70248;BME280;57641;51.416;5.506;2022-12-08T07:36:24;100966.34;;;8.77;62.83
70248;BME280;57641;51.416;5.506;2022-12-08T07:38:50;100968.84;;;8.78;63.36
70248;BME280;57641;51.416;5.506;2022-12-08T07:41:22;100971.59;;;8.48;63.19
70248;BME280;57641;51.416;5.506;2022-12-08T07:43:49;100963.94;;;8.64;63.28
70248;BME280;57641;51.416;5.506;2022-12-08T07:46:20;100960.44;;;8.64;63.69
70248;BME280;57641;51.416;5.506;2022-12-08T07:48:50;100960.00;;;8.59;63.52
70248;BME280;57641;51.416;5.506;2022-12-08T07:51:16;100966.03;;;8.70;63.82
70248;BME280;57641;51.416;5.506;2022-12-08T07:53:45;100975.13;;;8.68;63.42
70248;BME280;57641;51.416;5.506;2022-12-08T07:56:14;100968.81;;;8.59;63.60
70248;BME280;57641;51.416;5.506;2022-12-08T07:58:40;100963.22;;;8.62;63.53
70248;BME280;57641;51.416;5.506;2022-12-08T08:01:26;100967.44;;;8.65;63.38
70248;BME280;57641;51.416;5.506;2022-12-08T08:03:54;100971.22;;;8.72;63.83
70248;BME280;57641;51.416;5.506;2022-12-08T08:06:19;100975.41;;;8.74;63.52
70248;BME280;57641;51.416;5.506;2022-12-08T08:08:45;100978.06;;;8.55;62.92
70248;BME280;57641;51.416;5.506;2022-12-08T08:11:12;100971.78;;;8.56;63.22
70248;BME280;57641;51.416;5.506;2022-12-08T08:13:37;100972.41;;;8.39;64.00
70248;BME280;57641;51.416;5.506;2022-12-08T08:16:08;100970.22;;;8.54;64.29
70248;BME280;57641;51.416;5.506;2022-12-08T08:18:35;100980.94;;;8.42;64.41
70248;BME280;57641;51.416;5.506;2022-12-08T08:21:05;100985.19;;;8.55;64.30
70248;BME280;57641;51.416;5.506;2022-12-08T08:23:31;100979.16;;;8.53;63.56
70248;BME280;57641;51.416;5.506;2022-12-08T08:25:59;100979.03;;;8.54;63.80
70248;BME280;57641;51.416;5.506;2022-12-08T08:28:28;100976.91;;;8.48;63.66
70248;BME280;57641;51.416;5.506;2022-12-08T08:30:55;100987.72;;;8.56;63.60
70248;BME280;57641;51.416;5.506;2022-12-08T08:33:20;100974.44;;;8.56;63.38
70248;BME280;57641;51.416;5.506;2022-12-08T08:35:46;100978.19;;;8.54;63.26
70248;BME280;57641;51.416;5.506;2022-12-08T08:38:13;100975.81;;;8.60;63.68
70248;BME280;57641;51.416;5.506;2022-12-08T08:40:39;100975.22;;;8.47;63.87
70248;BME280;57641;51.416;5.506;2022-12-08T08:43:05;100976.25;;;8.56;63.65
70248;BME280;57641;51.416;5.506;2022-12-08T08:45:32;100969.50;;;8.52;63.52
70248;BME280;57641;51.416;5.506;2022-12-08T08:48:00;100967.56;;;8.54;63.62
70248;BME280;57641;51.416;5.506;2022-12-08T08:50:27;100976.66;;;8.51;63.10
70248;BME280;57641;51.416;5.506;2022-12-08T08:52:52;100971.28;;;8.41;63.00
70248;BME280;57641;51.416;5.506;2022-12-08T08:55:18;100980.34;;;8.29;63.69
70248;BME280;57641;51.416;5.506;2022-12-08T08:57:44;100973.94;;;8.32;64.33
70248;BME280;57641;51.416;5.506;2022-12-08T09:00:11;100980.41;;;8.48;64.37
70248;BME280;57641;51.416;5.506;2022-12-08T09:02:37;100975.22;;;8.47;63.72
70248;BME280;57641;51.416;5.506;2022-12-08T09:05:04;100977.59;;;8.40;63.03
70248;BME280;57641;51.416;5.506;2022-12-08T09:07:31;100979.97;;;8.34;62.76
70248;BME280;57641;51.416;5.506;2022-12-08T09:09:57;100970.50;;;8.51;64.13
70248;BME280;57641;51.416;5.506;2022-12-08T09:12:32;100968.91;;;8.38;63.30
70248;BME280;57641;51.416;5.506;2022-12-08T09:14:57;100965.72;;;8.35;64.30
70248;BME280;57641;51.416;5.506;2022-12-08T09:17:23;100973.41;;;8.47;64.26
70248;BME280;57641;51.416;5.506;2022-12-08T09:19:49;100973.59;;;8.56;63.66
70248;BME280;57641;51.416;5.506;2022-12-08T09:22:14;100975.81;;;8.60;63.80
70248;BME280;57641;51.416;5.506;2022-12-08T09:24:40;100977.09;;;8.56;64.24
70248;BME280;57641;51.416;5.506;2022-12-08T09:27:06;100976.06;;;8.47;64.61
70248;BME280;57641;51.416;5.506;2022-12-08T09:29:31;100973.00;;;8.52;64.09
70248;BME280;57641;51.416;5.506;2022-12-08T09:31:57;100978.78;;;8.67;63.49
70248;BME280;57641;51.416;5.506;2022-12-08T09:34:22;100985.06;;;8.66;63.26
70248;BME280;57641;51.416;5.506;2022-12-08T09:36:51;100983.38;;;8.65;63.89
70248;BME280;57641;51.416;5.506;2022-12-08T09:39:17;100980.28;;;8.60;63.49
70248;BME280;57641;51.416;5.506;2022-12-08T09:41:45;100971.88;;;8.45;63.68
70248;BME280;57641;51.416;5.506;2022-12-08T09:44:42;100967.13;;;8.48;64.12
70248;BME280;57641;51.416;5.506;2022-12-08T09:49:58;100965.97;;;8.41;64.32
70248;BME280;57641;51.416;5.506;2022-12-08T09:52:38;100961.25;;;8.55;64.09
70248;BME280;57641;51.416;5.506;2022-12-08T09:58:04;100962.47;;;8.41;64.32
70248;BME280;57641;51.416;5.506;2022-12-08T10:00:34;100953.53;;;8.32;65.08
70248;BME280;57641;51.416;5.506;2022-12-08T10:03:00;100956.34;;;8.40;64.17
70248;BME280;57641;51.416;5.506;2022-12-08T10:05:27;100962.53;;;8.51;64.03
70248;BME280;57641;51.416;5.506;2022-12-08T10:08:19;100963.63;;;8.48;64.32
70248;BME280;57641;51.416;5.506;2022-12-08T10:10:56;100956.50;;;8.58;64.82
70248;BME280;57641;51.416;5.506;2022-12-08T10:13:44;100947.25;;;8.53;64.13
70248;BME280;57641;51.416;5.506;2022-12-08T10:16:41;100945.75;;;8.20;64.08
70248;BME280;57641;51.416;5.506;2022-12-08T10:19:19;100940.69;;;8.47;64.64
70248;BME280;57641;51.416;5.506;2022-12-08T10:21:46;100942.47;;;8.37;65.09
70248;BME280;57641;51.416;5.506;2022-12-08T10:24:39;100946.59;;;8.51;64.76
70248;BME280;57641;51.416;5.506;2022-12-08T10:27:11;100939.28;;;8.53;64.21
70248;BME280;57641;51.416;5.506;2022-12-08T10:29:41;100943.09;;;8.50;63.61
70248;BME280;57641;51.416;5.506;2022-12-08T10:32:19;100940.97;;;8.63;63.90
70248;BME280;57641;51.416;5.506;2022-12-08T10:35:18;100931.50;;;8.61;63.80
70248;BME280;57641;51.416;5.506;2022-12-08T10:38:00;100933.84;;;8.54;64.14
70248;BME280;57641;51.416;5.506;2022-12-08T10:40:28;100941.53;;;8.47;64.20
70248;BME280;57641;51.416;5.506;2022-12-08T10:42:59;100927.13;;;8.50;64.04
70248;BME280;57641;51.416;5.506;2022-12-08T10:45:37;100939.28;;;8.53;63.74
70248;BME280;57641;51.416;5.506;2022-12-08T10:48:26;100936.38;;;8.56;64.06
70248;BME280;57641;51.416;5.506;2022-12-08T10:50:57;100936.38;;;8.56;63.98
70248;BME280;57641;51.416;5.506;2022-12-08T10:53:28;100932.16;;;8.34;63.82
70248;BME280;57641;51.416;5.506;2022-12-08T10:58:39;100930.34;;;8.44;63.82
70248;BME280;57641;51.416;5.506;2022-12-08T11:01:27;100926.44;;;8.48;63.97
70248;BME280;57641;51.416;5.506;2022-12-08T11:04:21;100926.00;;;8.53;63.62
70248;BME280;57641;51.416;5.506;2022-12-08T11:06:49;100929.09;;;8.58;63.69
70248;BME280;57641;51.416;5.506;2022-12-08T11:11:58;100925.88;;;8.73;62.52
70248;BME280;57641;51.416;5.506;2022-12-08T11:14:27;100915.00;;;8.67;62.95
70248;BME280;57641;51.416;5.506;2022-12-08T11:17:15;100910.47;;;8.67;62.84
70248;BME280;57641;51.416;5.506;2022-12-08T11:19:45;100908.84;;;8.66;63.46
70248;BME280;57641;51.416;5.506;2022-12-08T11:27:39;100898.47;;;8.63;63.55
70248;BME280;57641;51.416;5.506;2022-12-08T11:33:20;100900.41;;;8.90;63.46
70248;BME280;57641;51.416;5.506;2022-12-08T11:35:50;100893.31;;;8.71;63.13
70248;BME280;57641;51.416;5.506;2022-12-08T11:38:22;100894.56;;;8.86;63.32
70248;BME280;57641;51.416;5.506;2022-12-08T11:40:54;100882.50;;;9.02;63.19
70248;BME280;57641;51.416;5.506;2022-12-08T11:43:41;100881.78;;;9.09;63.45
70248;BME280;57641;51.416;5.506;2022-12-08T11:46:20;100881.66;;;9.01;61.99
70248;BME280;57641;51.416;5.506;2022-12-08T11:49:01;100879.56;;;8.95;62.35
70248;BME280;57641;51.416;5.506;2022-12-08T11:51:58;100887.94;;;9.00;62.28
70248;BME280;57641;51.416;5.506;2022-12-08T11:54:34;100889.09;;;8.98;62.31
70248;BME280;57641;51.416;5.506;2022-12-08T11:57:03;100881.53;;;8.93;62.37
70248;BME280;57641;51.416;5.506;2022-12-08T11:59:39;100877.03;;;8.94;62.37
70248;BME280;57641;51.416;5.506;2022-12-08T12:04:57;100881.25;;;8.86;62.30
70248;BME280;57641;51.416;5.506;2022-12-08T12:07:49;100873.16;;;8.69;62.84
70248;BME280;57641;51.416;5.506;2022-12-08T12:13:13;100861.41;;;8.71;62.30
70248;BME280;57641;51.416;5.506;2022-12-08T12:18:21;100866.56;;;8.92;63.40
70248;BME280;57641;51.416;5.506;2022-12-08T12:20:59;100858.56;;;9.02;62.91
70248;BME280;57641;51.416;5.506;2022-12-08T12:23:45;100857.56;;;9.12;62.18
70248;BME280;57641;51.416;5.506;2022-12-08T12:26:24;100867.06;;;9.15;62.83
70248;BME280;57641;51.416;5.506;2022-12-08T12:28:52;100855.31;;;9.17;62.91
70248;BME280;57641;51.416;5.506;2022-12-08T12:31:46;100860.06;;;9.23;62.45
70248;BME280;57641;51.416;5.506;2022-12-08T12:35:02;100855.84;;;9.30;62.11
70248;BME280;57641;51.416;5.506;2022-12-08T12:37:14;100841.53;;;9.31;62.41
70248;BME280;57641;51.416;5.506;2022-12-08T12:45:32;100855.84;;;9.30;61.74
70248;BME280;57641;51.416;5.506;2022-12-08T12:53:01;100853.66;;;9.07;61.25
70248;BME280;57641;51.416;5.506;2022-12-08T12:58:36;100849.19;;;8.98;61.52
70248;BME280;57641;51.416;5.506;2022-12-08T13:03:48;100845.72;;;8.87;61.88
70248;BME280;57641;51.416;5.506;2022-12-08T13:06:31;100846.81;;;8.95;60.91
70248;BME280;57641;51.416;5.506;2022-12-08T13:08:58;100839.13;;;8.92;61.45
70248;BME280;57641;51.416;5.506;2022-12-08T13:11:25;100847.53;;;8.97;62.21
70248;BME280;57641;51.416;5.506;2022-12-08T13:14:02;100842.63;;;8.92;60.90
70248;BME280;57641;51.416;5.506;2022-12-08T13:16:34;100837.91;;;8.76;60.67
70248;BME280;57641;51.416;5.506;2022-12-08T13:19:12;100833.97;;;8.80;61.25
70248;BME280;57641;51.416;5.506;2022-12-08T13:21:40;100847.13;;;8.82;62.11
70248;BME280;57641;51.416;5.506;2022-12-08T13:29:25;100840.09;;;8.90;61.63
70248;BME280;57641;51.416;5.506;2022-12-08T13:34:37;100833.34;;;9.06;61.92
70248;BME280;57641;51.416;5.506;2022-12-08T13:50:16;100824.28;;;8.99;62.82
70248;BME280;57641;51.416;5.506;2022-12-08T13:52:51;100817.13;;;8.99;63.23
70248;BME280;57641;51.416;5.506;2022-12-08T13:55:28;100815.31;;;9.09;63.52
70248;BME280;57641;51.416;5.506;2022-12-08T13:57:57;100813.19;;;9.13;62.94
70248;BME280;57641;51.416;5.506;2022-12-08T14:00:23;100804.50;;;9.11;63.59
70248;BME280;57641;51.416;5.506;2022-12-08T14:02:55;100809.94;;;9.19;63.61
70248;BME280;57641;51.416;5.506;2022-12-08T14:05:22;100801.66;;;9.22;63.78
70248;BME280;57641;51.416;5.506;2022-12-08T14:07:52;100803.50;;;9.21;63.54
70248;BME280;57641;51.416;5.506;2022-12-08T14:12:47;100807.38;;;9.27;62.67
70248;BME280;57641;51.416;5.506;2022-12-08T14:15:18;100792.59;;;9.15;62.57
70248;BME280;57641;51.416;5.506;2022-12-08T14:17:51;100801.28;;;9.17;62.81
70248;BME280;57641;51.416;5.506;2022-12-08T14:20:28;100808.13;;;9.19;63.25
70248;BME280;57641;51.416;5.506;2022-12-08T14:22:55;100810.38;;;9.14;62.82
70248;BME280;57641;51.416;5.506;2022-12-08T14:25:25;100822.41;;;9.18;63.35
70248;BME280;57641;51.416;5.506;2022-12-08T14:27:57;100820.28;;;9.22;62.53
70248;BME280;57641;51.416;5.506;2022-12-08T14:30:27;100824.50;;;9.24;62.69
70248;BME280;57641;51.416;5.506;2022-12-08T14:32:54;100820.28;;;9.22;62.39
70248;BME280;57641;51.416;5.506;2022-12-08T14:37:57;100815.56;;;9.06;62.29
70248;BME280;57641;51.416;5.506;2022-12-08T14:40:45;100811.28;;;8.96;62.63
70248;BME280;57641;51.416;5.506;2022-12-08T14:43:15;100814.34;;;9.01;62.32
70248;BME280;57641;51.416;5.506;2022-12-08T14:53:22;100821.13;;;8.47;62.46
70248;BME280;57641;51.416;5.506;2022-12-08T14:55:48;100814.56;;;8.51;62.64
70248;BME280;57641;51.416;5.506;2022-12-08T14:58:25;100811.91;;;8.61;62.71
70248;BME280;57641;51.416;5.506;2022-12-08T15:00:55;100804.63;;;8.53;62.69
70248;BME280;57641;51.416;5.506;2022-12-08T15:03:24;100808.00;;;8.45;62.61
70248;BME280;57641;51.416;5.506;2022-12-08T15:05:55;100802.81;;;8.44;62.13
70248;BME280;57641;51.416;5.506;2022-12-08T15:08:22;100806.72;;;8.50;62.63